Time;durP1;ratioP1;P1;durP2;ratioP2;P2;SDS_P1;SDS_P2;PMS_P1;PMS_P2;Temp;Humidity;BMP_temperature;BMP_pressure;BME280_temperature;BME280_humidity;BME280_pressure;Samples;Min_cycle;Max_cycle;Signal;HPM_P1;HPM_P2
2023/03/26 00:01:09;;;;;;;;;0.00;0.00;;;;;13.39;53.34;100052.28;5074371;28;46378;-76
2023/03/26 00:03:36;;;;;;;;;1.00;1.00;;;;;13.38;53.27;100046.22;5090059;27;46035;-75
2023/03/26 00:06:06;;;;;;;;;0.50;0.50;;;;;13.37;53.63;100057.69;5090025;27;45673;-75
2023/03/26 00:08:36;;;;;;;;;2.50;0.50;;;;;13.37;54.16;100038.44;5074834;28;45754;-76
2023/03/26 00:11:03;;;;;;;;;1.00;1.00;;;;;13.30;54.29;100024.19;5074186;27;46414;-76
2023/03/26 00:13:29;;;;;;;;;1.75;0.25;;;;;13.25;54.89;100014.09;5074624;28;45950;-75
2023/03/26 00:15:54;;;;;;;;;1.50;1.00;;;;;13.26;54.69;100017.56;5074804;27;45674;-76
2023/03/26 00:18:23;;;;;;;;;0.25;0.25;;;;;13.28;54.72;100010.34;5074850;28;45636;-78
2023/03/26 00:24:13;;;;;;;;;2.00;1.00;;;;;13.30;55.14;100005.78;5074479;28;45654;-76
2023/03/26 00:26:40;;;;;;;;;0.25;0.00;;;;;13.26;55.20;99996.50;5075053;27;45816;-76
2023/03/26 00:29:07;;;;;;;;;1.00;1.00;;;;;13.30;55.49;99997.88;5090306;27;45644;-78
2023/03/26 00:31:34;;;;;;;;;1.00;1.00;;;;;13.31;55.58;99989.00;5074291;27;45589;-76
2023/03/26 00:34:02;;;;;;;;;0.00;0.00;;;;;13.30;55.97;99993.44;5074056;27;45944;-77
2023/03/26 00:36:28;;;;;;;;;0.00;0.00;;;;;13.27;55.56;99982.38;5089899;27;45884;-77
2023/03/26 00:38:54;;;;;;;;;1.75;0.00;;;;;13.28;56.18;99976.97;5074558;27;45656;-77
2023/03/26 00:41:23;;;;;;;;;0.00;0.00;;;;;13.29;56.43;99977.78;5074094;28;46568;-76
2023/03/26 00:43:52;;;;;;;;;0.00;0.00;;;;;13.19;56.52;99959.41;5074310;27;46289;-78
2023/03/26 00:46:18;;;;;;;;;1.00;0.00;;;;;13.27;56.57;99951.66;5074313;27;45689;-77
2023/03/26 00:48:44;;;;;;;;;1.75;1.75;;;;;13.25;57.40;99934.34;5074807;27;46041;-77
2023/03/26 00:54:31;;;;;;;;;1.00;0.50;;;;;13.10;57.56;99906.81;5073721;28;45966;-77
2023/03/26 00:56:56;;;;;;;;;0.00;0.00;;;;;13.10;57.72;99902.38;5074125;27;46055;-78
2023/03/26 00:59:21;;;;;;;;;1.00;1.00;;;;;13.15;57.87;99904.59;5074338;28;45470;-78
2023/03/26 01:01:48;;;;;;;;;0.25;0.25;;;;;13.14;58.56;99902.94;5073813;28;46352;-76
2023/03/26 01:04:29;;;;;;;;;1.00;0.00;;;;;13.12;58.88;99892.56;5073914;28;46075;-77
2023/03/26 01:06:59;;;;;;;;;0.00;0.00;;;;;13.06;58.78;99882.59;5073731;27;45860;-77
2023/03/26 01:09:31;;;;;;;;;0.50;0.00;;;;;12.92;58.88;99859.38;5074169;27;45665;-75
2023/03/26 01:11:59;;;;;;;;;0.00;0.00;;;;;12.96;59.61;99866.81;5073685;27;45567;-77
2023/03/26 01:14:27;;;;;;;;;0.00;0.00;;;;;12.98;60.00;99869.31;5073890;27;46098;-77
2023/03/26 01:16:55;;;;;;;;;0.00;0.00;;;;;12.88;60.03;99844.84;5073888;27;45856;-77
2023/03/26 01:19:38;;;;;;;;;0.00;0.00;;;;;12.81;60.09;99836.69;5073958;27;45443;-77
2023/03/26 01:22:09;;;;;;;;;0.50;0.00;;;;;12.82;60.33;99829.66;5073612;27;46287;-77
2023/03/26 01:24:36;;;;;;;;;2.00;0.00;;;;;12.86;60.24;99837.09;5088780;27;46421;-76
2023/03/26 01:27:26;;;;;;;;;1.00;1.00;;;;;12.85;60.64;99837.25;5073496;27;45732;-75
2023/03/26 01:30:04;;;;;;;;;0.75;0.00;;;;;12.84;61.04;99827.72;5073476;28;45740;-77
2023/03/26 01:32:36;;;;;;;;;1.00;1.00;;;;;12.82;61.55;99825.22;5073388;28;45656;-76
2023/03/26 01:35:20;;;;;;;;;1.00;1.00;;;;;12.81;61.60;99812.22;5073139;27;46963;-75
2023/03/26 01:37:58;;;;;;;;;1.00;1.00;;;;;12.78;61.73;99802.84;5073335;28;45809;-78
2023/03/26 01:40:24;;;;;;;;;2.00;1.00;;;;;12.76;61.64;99791.63;5073332;27;45765;-78
2023/03/26 01:42:59;;;;;;;;;2.00;0.00;;;;;12.73;61.90;99781.41;5073331;27;45473;-77
2023/03/26 01:45:30;;;;;;;;;0.50;0.00;;;;;12.72;61.96;99757.88;5075034;28;47270;-76
2023/03/26 01:47:55;;;;;;;;;1.00;1.00;;;;;12.61;62.58;99735.25;5076569;27;45557;-77
2023/03/26 01:50:21;;;;;;;;;1.00;1.00;;;;;12.61;62.31;99729.97;5076366;27;45991;-76
2023/03/26 01:52:46;;;;;;;;;1.00;0.00;;;;;12.59;62.88;99721.41;5076651;27;45559;-76
2023/03/26 01:55:13;;;;;;;;;0.50;0.00;;;;;12.56;63.00;99712.03;5076754;28;46136;-76
2023/03/26 01:58:07;;;;;;;;;1.00;1.00;;;;;12.54;63.38;99702.63;5092427;27;45567;-76
2023/03/26 02:00:41;;;;;;;;;0.00;0.00;;;;;12.49;63.13;99697.78;5076755;27;45466;-77
2023/03/26 02:03:22;;;;;;;;;0.00;0.00;;;;;12.48;63.45;99684.78;5076331;27;45967;-76
2023/03/26 02:06:04;;;;;;;;;2.00;1.00;;;;;12.41;63.53;99676.69;5076190;27;46174;-77
2023/03/26 02:08:40;;;;;;;;;0.00;0.00;;;;;12.37;63.74;99669.22;5076660;27;45763;-76
2023/03/26 02:11:11;;;;;;;;;0.50;0.50;;;;;12.34;64.00;99661.63;5091299;27;45699;-75
2023/03/26 02:13:38;;;;;;;;;1.00;1.00;;;;;12.31;64.03;99660.09;5076834;27;46704;-75
2023/03/26 02:16:06;;;;;;;;;0.25;0.25;;;;;12.23;64.06;99628.50;5077285;27;46268;-76
2023/03/26 02:18:35;;;;;;;;;0.00;0.00;;;;;12.21;64.46;99630.41;5077519;27;45599;-75
2023/03/26 02:21:12;;;;;;;;;1.25;0.00;;;;;12.21;64.54;99622.53;5077545;27;45837;-76
2023/03/26 02:23:45;;;;;;;;;1.25;0.00;;;;;12.18;64.70;99602.66;5076826;27;48797;-76
2023/03/26 02:26:14;;;;;;;;;1.00;0.50;;;;;12.17;65.42;99601.00;5076626;27;45532;-76
2023/03/26 02:28:40;;;;;;;;;2.00;1.25;;;;;12.09;65.14;99550.19;5076095;27;45625;-76
2023/03/26 02:31:08;;;;;;;;;0.75;0.25;;;;;12.02;65.20;99549.13;5076072;27;45772;-76
2023/03/26 02:33:34;;;;;;;;;2.25;1.25;;;;;12.03;65.33;99561.28;5075718;27;47367;-78
2023/03/26 02:36:00;;;;;;;;;2.00;1.00;;;;;12.01;65.25;99574.53;5076052;28;46497;-76
2023/03/26 02:38:32;;;;;;;;;1.75;1.00;;;;;11.99;65.52;99568.59;5075835;27;45806;-76
2023/03/26 02:40:58;;;;;;;;;1.25;1.00;;;;;11.98;65.28;99553.84;5075835;27;45796;-74
2023/03/26 02:43:24;;;;;;;;;3.00;1.00;;;;;11.99;65.50;99544.13;5075557;27;46512;-75
2023/03/26 02:45:49;;;;;;;;;0.75;0.25;;;;;11.94;65.44;99533.25;5075616;28;47059;-76
2023/03/26 02:48:15;;;;;;;;;0.75;0.25;;;;;11.96;65.41;99533.94;5075810;28;45783;-77
2023/03/26 02:50:41;;;;;;;;;2.00;0.25;;;;;11.95;65.84;99534.91;5075648;27;45517;-76
2023/03/26 02:53:07;;;;;;;;;1.75;1.75;;;;;11.87;66.10;99508.56;5091549;27;46512;-76
2023/03/26 02:55:32;;;;;;;;;1.00;0.75;;;;;11.96;65.81;99524.25;5075378;27;46268;-76
2023/03/26 02:57:57;;;;;;;;;1.00;0.00;;;;;11.97;66.15;99517.22;5075892;27;45483;-77
2023/03/26 03:00:24;;;;;;;;;1.00;0.00;;;;;11.97;66.20;99502.31;5075390;28;45843;-74
2023/03/26 03:02:51;;;;;;;;;1.00;1.00;;;;;11.89;66.12;99493.47;5075529;28;45742;-77
2023/03/26 03:05:18;;;;;;;;;0.50;0.50;;;;;11.92;66.42;99482.72;5091455;27;45999;-75
2023/03/26 03:07:45;;;;;;;;;1.00;1.00;;;;;11.85;66.37;99474.59;5075429;27;45797;-75
2023/03/26 03:10:13;;;;;;;;;1.75;0.75;;;;;11.87;66.64;99475.28;5075817;27;45800;-77
2023/03/26 03:12:41;;;;;;;;;3.75;1.75;;;;;11.87;66.50;99479.69;5075463;27;46483;-77
2023/03/26 03:15:08;;;;;;;;;0.25;0.25;;;;;11.85;66.43;99471.97;5075272;27;46238;-76
2023/03/26 03:17:33;;;;;;;;;0.00;0.00;;;;;11.84;66.76;99474.72;5075562;27;45774;-78
2023/03/26 03:20:01;;;;;;;;;3.00;0.00;;;;;11.84;66.67;99451.94;5075323;28;45831;-77
2023/03/26 03:25:51;;;;;;;;;1.00;0.25;;;;;11.72;66.14;99432.88;5074987;28;45713;-77
2023/03/26 03:28:17;;;;;;;;;0.50;0.00;;;;;11.59;66.40;99428.97;5075283;27;45600;-77
2023/03/26 03:30:42;;;;;;;;;0.75;0.75;;;;;11.72;66.34;99455.69;5074739;28;45692;-76
2023/03/26 03:33:08;;;;;;;;;0.50;0.00;;;;;11.65;65.98;99444.13;5074702;27;46383;-76
2023/03/26 03:35:33;;;;;;;;;1.00;0.25;;;;;11.68;65.87;99452.53;5090501;27;47811;-76
2023/03/26 03:37:59;;;;;;;;;0.00;0.00;;;;;11.54;66.00;99436.44;5075311;27;45659;-77
2023/03/26 03:40:25;;;;;;;;;0.75;0.00;;;;;11.63;66.02;99459.16;5074844;28;45462;-77
2023/03/26 03:42:50;;;;;;;;;0.50;0.00;;;;;11.60;66.03;99459.47;5074717;27;46396;-77
2023/03/26 03:45:15;;;;;;;;;1.00;0.00;;;;;11.48;66.03;99452.75;5074942;27;46104;-76
2023/03/26 03:47:41;;;;;;;;;0.00;0.00;;;;;11.53;66.06;99450.50;5090398;27;45603;-76
2023/03/26 03:50:07;;;;;;;;;0.50;0.00;;;;;11.46;66.37;99473.84;5074809;28;45786;-77
2023/03/26 03:52:33;;;;;;;;;0.00;0.00;;;;;11.45;66.21;99469.56;5074340;27;46471;-74
2023/03/26 03:54:59;;;;;;;;;0.00;0.00;;;;;11.43;66.33;99458.41;5074649;28;46485;-75
2023/03/26 03:57:26;;;;;;;;;0.00;0.00;;;;;11.41;66.43;99457.72;5074697;27;45706;-76
2023/03/26 03:59:51;;;;;;;;;0.00;0.00;;;;;11.36;66.35;99444.22;5074697;27;45988;-77
2023/03/26 04:02:25;;;;;;;;;0.00;0.00;;;;;11.34;66.35;99452.22;5074534;28;46372;-76
2023/03/26 04:04:56;;;;;;;;;1.50;0.00;;;;;11.28;66.23;99473.75;5074629;27;45944;-77
2023/03/26 04:07:22;;;;;;;;;0.00;0.00;;;;;11.27;66.01;99464.25;5073771;27;45607;-76
2023/03/26 04:09:48;;;;;;;;;0.00;0.00;;;;;11.23;66.06;99438.44;5074610;27;45702;-77
2023/03/26 04:12:13;;;;;;;;;0.00;0.00;;;;;11.19;65.97;99453.63;5074327;27;45639;-75
2023/03/26 04:14:38;;;;;;;;;0.00;0.00;;;;;11.16;65.65;99432.97;5074379;27;47159;-76
2023/03/26 04:17:07;;;;;;;;;0.00;0.00;;;;;11.04;65.54;99441.94;5074590;27;45802;-75
2023/03/26 04:19:34;;;;;;;;;0.00;0.00;;;;;11.08;65.69;99448.56;5090211;27;46001;-77
2023/03/26 04:22:01;;;;;;;;;0.00;0.00;;;;;11.02;65.46;99454.34;5073915;27;45829;-76
2023/03/26 04:24:37;;;;;;;;;0.00;0.00;;;;;11.03;65.38;99449.94;5074111;28;46258;-75
2023/03/26 04:27:05;;;;;;;;;0.00;0.00;;;;;10.98;65.18;99458.22;5074343;27;45596;-75
2023/03/26 04:29:37;;;;;;;;;0.00;0.00;;;;;10.99;65.21;99466.91;5074297;28;45549;-76
2023/03/26 04:32:06;;;;;;;;;0.00;0.00;;;;;10.97;65.13;99498.50;5089890;27;46545;-74
2023/03/26 04:34:33;;;;;;;;;1.00;0.00;;;;;10.96;64.80;99448.88;5074279;27;46250;-76
2023/03/26 04:37:00;;;;;;;;;0.00;0.00;;;;;10.98;64.84;99457.41;5074016;27;45646;-75
2023/03/26 04:39:28;;;;;;;;;0.00;0.00;;;;;10.94;64.89;99464.72;5074830;27;45656;-75
2023/03/26 04:41:56;;;;;;;;;1.00;0.00;;;;;10.96;64.89;99477.69;5074754;27;47537;-75
2023/03/26 04:44:22;;;;;;;;;0.00;0.00;;;;;10.99;64.65;99462.50;5073606;27;47736;-77
2023/03/26 04:46:54;;;;;;;;;0.00;0.00;;;;;10.91;64.91;99468.44;5075299;28;45622;-77
2023/03/26 04:49:19;;;;;;;;;0.00;0.00;;;;;10.78;64.89;99446.94;5075693;27;45573;-76
2023/03/26 04:51:45;;;;;;;;;0.00;0.00;;;;;10.89;65.00;99477.41;5074217;27;46398;-77
2023/03/26 04:54:13;;;;;;;;;0.00;0.00;;;;;10.83;64.61;99484.03;5073656;28;46096;-75
2023/03/26 04:56:50;;;;;;;;;0.75;0.00;;;;;10.79;64.65;99485.28;5074078;27;45698;-77
2023/03/26 04:59:29;;;;;;;;;0.00;0.00;;;;;10.78;64.79;99488.88;5073955;28;45740;-76
2023/03/26 05:01:58;;;;;;;;;0.00;0.00;;;;;10.76;64.71;99501.25;5073439;27;46459;-75
2023/03/26 05:04:25;;;;;;;;;0.00;0.00;;;;;10.75;64.73;99504.00;5073708;27;46119;-76
2023/03/26 05:06:55;;;;;;;;;0.00;0.00;;;;;10.73;65.03;99500.72;5073693;28;45650;-77
2023/03/26 05:09:21;;;;;;;;;0.00;0.00;;;;;10.69;64.87;99494.09;5073030;27;45604;-77
2023/03/26 05:11:47;;;;;;;;;0.00;0.00;;;;;10.73;64.93;99511.19;5072148;28;48263;-76
2023/03/26 05:14:12;;;;;;;;;0.00;0.00;;;;;10.75;65.09;99510.09;5072583;28;46102;-78
2023/03/26 05:16:40;;;;;;;;;1.00;0.00;;;;;10.69;64.91;99542.06;5073861;27;45539;-77
2023/03/26 05:19:05;;;;;;;;;0.00;0.00;;;;;10.66;64.69;99507.47;5074096;27;45943;-74
2023/03/26 05:21:31;;;;;;;;;0.00;0.00;;;;;10.63;65.02;99515.59;5076761;28;47162;-77
2023/03/26 05:23:56;;;;;;;;;0.00;0.00;;;;;10.53;65.03;99503.31;5076971;27;45726;-77
2023/03/26 05:26:22;;;;;;;;;0.00;0.00;;;;;10.63;64.88;99537.38;5076931;28;45686;-76
2023/03/26 05:28:47;;;;;;;;;0.50;0.00;;;;;10.58;64.92;99530.91;5075892;28;45628;-75
2023/03/26 05:31:14;;;;;;;;;0.75;0.00;;;;;10.59;65.04;99535.97;5076447;27;46412;-76
2023/03/26 05:33:39;;;;;;;;;0.00;0.00;;;;;10.59;64.96;99543.84;5075384;28;48520;-75
2023/03/26 05:36:14;;;;;;;;;0.00;0.00;;;;;10.57;64.95;99552.81;5077217;27;45640;-76
2023/03/26 05:42:01;;;;;;;;;0.00;0.00;;;;;10.59;65.12;99559.56;5076663;28;45700;-77
2023/03/26 05:44:27;;;;;;;;;0.00;0.00;;;;;10.60;64.92;99558.59;5076717;27;46001;-77
2023/03/26 05:46:52;;;;;;;;;1.00;1.00;;;;;10.58;65.03;99567.56;5076976;28;45705;-75
2023/03/26 05:49:17;;;;;;;;;0.00;0.00;;;;;10.57;65.02;99544.94;5076961;28;45712;-78
2023/03/26 05:51:43;;;;;;;;;0.75;0.00;;;;;10.57;64.95;99545.78;5076256;27;47414;-75
2023/03/26 05:54:08;;;;;;;;;0.00;0.00;;;;;10.56;65.06;99549.34;5076361;27;46128;-76
2023/03/26 05:56:33;;;;;;;;;0.00;0.00;;;;;10.57;64.75;99540.53;5076529;27;45541;-75
2023/03/26 05:58:59;;;;;;;;;0.00;0.00;;;;;10.52;64.68;99538.34;5076784;28;45761;-75
2023/03/26 06:01:24;;;;;;;;;1.00;0.75;;;;;10.57;64.60;99545.78;5076647;27;45541;-76
2023/03/26 06:03:50;;;;;;;;;0.00;0.00;;;;;10.42;64.82;99516.50;5076858;28;46112;-75
2023/03/26 06:06:18;;;;;;;;;0.00;0.00;;;;;10.59;64.50;99556.09;5077003;27;45835;-76
2023/03/26 06:12:06;;;;;;;;;1.00;0.00;;;;;10.57;64.03;99548.41;5076303;28;45714;-77
2023/03/26 06:14:31;;;;;;;;;1.00;0.00;;;;;10.47;64.32;99548.34;5076851;27;45972;-77
2023/03/26 06:16:57;;;;;;;;;0.25;0.00;;;;;10.45;64.16;99534.59;5076674;27;45633;-75
2023/03/26 06:19:22;;;;;;;;;1.75;0.00;;;;;10.46;63.97;99561.59;5076392;27;45504;-76
2023/03/26 06:21:48;;;;;;;;;0.00;0.00;;;;;10.45;63.98;99557.31;5076083;27;47463;-76
2023/03/26 06:27:35;;;;;;;;;1.00;0.00;;;;;10.48;63.88;99564.91;5076183;28;45820;-75
2023/03/26 06:30:00;;;;;;;;;0.00;0.00;;;;;10.47;64.13;99558.03;5075474;27;45770;-77
2023/03/26 06:32:26;;;;;;;;;1.00;0.00;;;;;10.57;63.75;99569.34;5076074;27;45576;-77
2023/03/26 06:34:51;;;;;;;;;1.50;0.00;;;;;10.61;63.87;99559.44;5076565;27;47176;-76
2023/03/26 06:37:16;;;;;;;;;0.00;0.00;;;;;10.65;63.71;99553.78;5076159;28;45542;-76
2023/03/26 06:39:42;;;;;;;;;0.75;0.00;;;;;10.67;63.49;99543.19;5075619;27;45712;-77
2023/03/26 06:42:07;;;;;;;;;0.75;0.00;;;;;10.67;63.45;99548.41;5075450;27;45548;-75
2023/03/26 06:44:33;;;;;;;;;1.00;0.00;;;;;10.76;63.10;99569.38;5075542;27;47045;-77
2023/03/26 06:46:58;;;;;;;;;0.00;0.00;;;;;10.77;63.18;99560.56;5075902;27;45564;-76
2023/03/26 06:49:23;;;;;;;;;1.00;0.00;;;;;10.76;63.20;99556.28;5075714;27;45887;-76
2023/03/26 06:51:49;;;;;;;;;1.00;0.00;;;;;10.87;63.07;99560.56;5075197;27;46847;-75
2023/03/26 06:57:36;;;;;;;;;1.25;0.00;;;;;10.85;63.05;99555.44;5075533;28;45597;-76
2023/03/26 07:00:03;;;;;;;;;1.00;0.00;;;;;10.86;62.78;99549.25;5075584;27;45782;-74
2023/03/26 07:02:28;;;;;;;;;0.50;0.00;;;;;10.99;62.67;99577.81;5075353;27;47564;-76
2023/03/26 07:04:53;;;;;;;;;0.00;0.00;;;;;10.97;62.59;99590.22;5075102;28;46016;-76
2023/03/26 07:07:20;;;;;;;;;0.25;0.00;;;;;10.96;62.63;99588.56;5075760;27;45753;-77
2023/03/26 07:13:07;;;;;;;;;1.00;0.00;;;;;10.98;62.42;99580.56;5075238;28;45607;-77
2023/03/26 07:15:33;;;;;;;;;0.50;0.00;;;;;11.03;62.48;99588.84;5075197;27;46213;-74
2023/03/26 07:17:58;;;;;;;;;1.75;1.00;;;;;11.03;62.38;99586.22;5075205;27;45525;-71
2023/03/26 07:20:24;;;;;;;;;0.00;0.00;;;;;11.02;62.43;99576.69;5074550;27;45440;-72
2023/03/26 07:22:50;;;;;;;;;1.00;0.00;;;;;11.05;62.37;99582.53;5074809;27;46378;-73
2023/03/26 07:25:17;;;;;;;;;0.00;0.00;;;;;11.16;62.16;99592.88;5075047;28;48373;-72
2023/03/26 07:27:57;;;;;;;;;0.00;0.00;;;;;11.19;62.37;99610.09;5075168;27;45529;-72
2023/03/26 07:30:55;;;;;;;;;1.00;0.50;;;;;11.14;62.16;99588.72;5074376;28;46418;-73
2023/03/26 07:33:43;;;;;;;;;1.00;0.00;;;;;11.14;62.12;99597.41;5074434;27;46544;-73
2023/03/26 07:36:45;;;;;;;;;1.50;1.00;;;;;11.19;62.11;99608.31;5074658;27;47073;-73
2023/03/26 07:39:26;;;;;;;;;1.75;1.00;;;;;11.22;62.14;99599.34;5031962;28;45748;-72
2023/03/26 07:42:09;;;;;;;;;0.00;0.00;;;;;11.22;62.08;99608.06;5031536;28;45710;-73
2023/03/26 07:44:49;;;;;;;;;0.00;0.00;;;;;11.22;62.00;99607.22;5031957;28;45635;-72
2023/03/26 07:47:31;;;;;;;;;0.50;0.00;;;;;11.22;62.13;99623.78;5032111;28;46212;-72
2023/03/26 07:49:58;;;;;;;;;1.00;0.00;;;;;11.21;62.13;99618.66;5031709;28;45700;-73
2023/03/26 07:52:25;;;;;;;;;0.75;0.00;;;;;11.25;62.21;99609.56;5031676;28;45677;-72
2023/03/26 07:54:51;;;;;;;;;2.00;0.00;;;;;11.27;62.12;99591.91;5031778;28;47426;-71
2023/03/26 07:57:51;;;;;;;;;0.75;0.00;;;;;11.43;62.04;99618.41;5031951;28;46072;-72
2023/03/26 08:00:44;;;;;;;;;0.00;0.00;;;;;11.49;61.92;99617.00;5006542;28;45664;-72
2023/03/26 08:03:24;;;;;;;;;1.75;0.50;;;;;11.57;61.77;99632.88;5032041;28;45865;-73
2023/03/26 08:06:29;;;;;;;;;0.00;0.00;;;;;11.59;61.81;99621.28;5031798;28;45626;-75
2023/03/26 08:12:45;;;;;;;;;1.00;0.00;;;;;11.66;61.72;99624.97;5030484;28;45719;-73
2023/03/26 08:15:24;;;;;;;;;0.50;0.00;;;;;11.70;61.66;99620.31;4971736;28;45903;-73
2023/03/26 08:18:20;;;;;;;;;2.00;0.00;;;;;11.75;61.66;99615.50;5011691;28;46602;-73
2023/03/26 08:20:53;;;;;;;;;1.25;0.25;;;;;11.77;61.49;99627.50;5011652;28;46164;-72
2023/03/26 08:29:50;;;;;;;;;0.00;0.00;;;;;11.82;61.36;99636.75;5011338;28;45835;-77
2023/03/26 08:32:18;;;;;;;;;1.00;0.00;;;;;11.76;61.42;99625.03;5011838;28;46275;-72
2023/03/26 08:34:45;;;;;;;;;0.00;0.00;;;;;11.78;61.49;99639.66;5010796;28;45807;-71
2023/03/26 08:37:10;;;;;;;;;1.00;0.00;;;;;11.81;61.60;99648.22;5011054;28;45804;-73
2023/03/26 08:39:40;;;;;;;;;1.75;0.00;;;;;11.85;61.65;99644.34;5011421;28;46722;-73
2023/03/26 08:42:29;;;;;;;;;0.50;0.00;;;;;11.89;61.35;99651.78;5011019;28;46078;-74
2023/03/26 08:46:08;;;;;;;;;2.00;0.00;;;;;11.65;61.26;99618.09;4994768;28;45675;-73
2023/03/26 08:48:42;;;;;;;;;0.00;0.00;;;;;11.86;61.41;99651.25;4952847;28;45569;-74
2023/03/26 08:51:09;;;;;;;;;1.00;0.00;;;;;11.89;61.42;99653.56;4964058;28;45771;-74
2023/03/26 08:57:30;;;;;;;;;0.00;0.00;;;;;11.92;61.00;99640.19;4958976;28;45867;-73
2023/03/26 09:00:32;;;;;;;;;1.00;1.00;;;;;11.92;60.82;99656.78;4958888;28;45555;-75
2023/03/26 09:03:24;;;;;;;;;0.00;0.00;;;;;11.73;60.66;99641.03;4958827;28;45698;-73
2023/03/26 09:06:26;;;;;;;;;1.00;1.00;;;;;11.86;60.41;99656.50;4958237;28;46341;-74
2023/03/26 09:12:19;;;;;;;;;0.00;0.00;;;;;11.85;60.14;99658.28;4958375;28;45879;-74
2023/03/26 09:15:12;;;;;;;;;0.50;0.00;;;;;11.86;60.13;99652.06;4958461;28;47413;-74
2023/03/26 09:18:04;;;;;;;;;0.00;0.00;;;;;11.86;59.84;99677.50;4958678;28;46030;-74
2023/03/26 09:21:05;;;;;;;;;0.00;0.00;;;;;11.80;59.69;99664.94;5015309;28;45804;-73
2023/03/26 09:23:43;;;;;;;;;0.00;0.00;;;;;11.75;59.57;99673.22;5017835;28;45569;-74
2023/03/26 09:29:35;;;;;;;;;0.00;0.00;;;;;11.64;59.60;99674.16;5017010;28;45869;-75
2023/03/26 09:32:36;;;;;;;;;0.00;0.00;;;;;11.61;59.30;99670.97;5048667;27;45778;-74
2023/03/26 09:35:24;;;;;;;;;0.00;0.00;;;;;11.55;59.38;99685.47;5095697;27;45882;-73
2023/03/26 09:37:57;;;;;;;;;0.00;0.00;;;;;11.51;59.22;99691.97;5080149;27;46346;-74
2023/03/26 09:40:42;;;;;;;;;0.00;0.00;;;;;11.55;59.10;99693.34;5079499;28;47263;-73
2023/03/26 09:43:23;;;;;;;;;0.00;0.00;;;;;11.60;58.80;99700.81;5078864;27;45652;-73
2023/03/26 09:45:57;;;;;;;;;0.00;0.00;;;;;11.56;59.05;99695.00;5079494;28;45876;-72
2023/03/26 09:48:37;;;;;;;;;0.00;0.00;;;;;11.57;58.99;99693.22;5079622;28;45655;-74
2023/03/26 09:51:15;;;;;;;;;0.00;0.00;;;;;11.57;59.03;99711.56;5079415;28;47241;-73
2023/03/26 09:54:08;;;;;;;;;0.00;0.00;;;;;11.57;59.12;99707.16;5078915;27;45633;-73
2023/03/26 09:56:43;;;;;;;;;1.00;0.00;;;;;11.48;58.89;99699.28;5079825;28;45525;-73
2023/03/26 09:59:17;;;;;;;;;0.00;0.00;;;;;11.49;59.03;99699.16;5079283;27;46958;-74
2023/03/26 10:01:56;;;;;;;;;0.00;0.00;;;;;11.47;58.93;99705.50;5079101;28;46134;-72
2023/03/26 10:04:49;;;;;;;;;0.00;0.00;;;;;11.48;59.05;99715.03;5080125;28;45691;-72
2023/03/26 10:07:39;;;;;;;;;0.00;0.00;;;;;11.45;59.34;99712.66;5075975;28;45531;-73
2023/03/26 10:13:38;;;;;;;;;0.00;0.00;;;;;11.46;59.19;99707.28;5076014;28;45963;-72
2023/03/26 10:16:03;;;;;;;;;0.00;0.00;;;;;11.55;59.10;99722.19;5076351;28;45623;-70
2023/03/26 10:18:59;;;;;;;;;0.00;0.00;;;;;11.59;59.14;99713.09;5075978;28;45769;-71
2023/03/26 10:21:54;;;;;;;;;0.00;0.00;;;;;11.68;58.68;99721.94;5075662;28;46504;-72
2023/03/26 10:24:22;;;;;;;;;1.00;0.00;;;;;11.69;58.68;99732.31;5075916;27;45983;-71
2023/03/26 10:30:33;;;;;;;;;0.00;0.00;;;;;11.77;58.59;99729.00;5072242;28;45970;-72
2023/03/26 10:33:13;;;;;;;;;0.00;0.00;;;;;11.76;58.46;99738.69;5076214;27;46206;-71
2023/03/26 10:36:08;;;;;;;;;0.00;0.00;;;;;11.70;58.58;99741.00;5077078;27;46203;-72
2023/03/26 10:38:54;;;;;;;;;0.00;0.00;;;;;11.76;58.82;99746.56;5075714;27;45573;-72
2023/03/26 10:41:43;;;;;;;;;0.00;0.00;;;;;11.82;58.68;99747.81;5033121;28;45834;-72
2023/03/26 10:44:33;;;;;;;;;0.00;0.00;;;;;11.86;58.50;99738.69;5033379;28;46401;-71
2023/03/26 10:47:17;;;;;;;;;0.00;0.00;;;;;11.88;58.44;99741.97;5033169;28;47200;-70
2023/03/26 10:50:20;;;;;;;;;1.00;0.00;;;;;11.89;58.41;99746.28;5033089;28;45625;-72
2023/03/26 10:53:16;;;;;;;;;0.00;0.00;;;;;11.89;58.20;99738.41;5029237;28;45870;-71
2023/03/26 10:59:11;;;;;;;;;0.00;0.00;;;;;12.13;58.13;99737.97;5032604;28;46017;-72
2023/03/26 11:01:42;;;;;;;;;0.00;0.00;;;;;12.20;57.89;99742.50;5032891;28;45723;-72
2023/03/26 11:04:19;;;;;;;;;0.00;0.00;;;;;12.27;57.89;99745.41;5031976;28;45967;-72
2023/03/26 11:07:04;;;;;;;;;0.00;0.00;;;;;12.31;57.79;99736.25;5032864;28;46342;-72
2023/03/26 11:09:41;;;;;;;;;0.50;0.00;;;;;12.34;57.83;99741.25;5032811;28;46133;-72
2023/03/26 11:15:37;;;;;;;;;1.00;0.00;;;;;12.34;57.92;99736.00;5032978;28;45622;-72
2023/03/26 11:18:35;;;;;;;;;0.00;0.00;;;;;12.26;57.77;99716.66;5031417;28;47851;-76
2023/03/26 11:21:03;;;;;;;;;0.00;0.00;;;;;12.45;57.90;99738.47;5074512;27;46284;-76
2023/03/26 11:23:39;;;;;;;;;0.00;0.00;;;;;12.49;57.40;99734.56;5074518;28;45632;-75
2023/03/26 11:26:39;;;;;;;;;0.00;0.00;;;;;12.50;57.29;99751.16;5074891;27;45480;-77
2023/03/26 11:29:26;;;;;;;;;0.00;0.00;;;;;12.51;56.92;99732.66;5074981;28;46883;-79
2023/03/26 11:32:09;;;;;;;;;0.00;0.00;;;;;12.53;56.45;99729.84;5090212;27;46450;-76
2023/03/26 11:34:55;;;;;;;;;0.00;0.00;;;;;12.56;56.17;99722.53;5074820;28;45635;-74
2023/03/26 11:37:32;;;;;;;;;1.50;1.25;;;;;12.61;55.60;99725.56;5074456;27;45912;-75
2023/03/26 11:40:05;;;;;;;;;0.00;0.00;;;;;12.71;55.36;99741.28;5074971;27;46409;-76
2023/03/26 11:42:31;;;;;;;;;0.50;0.00;;;;;12.72;54.31;99713.22;5074801;27;46023;-77
2023/03/26 11:45:03;;;;;;;;;1.00;0.00;;;;;12.84;54.57;99731.28;5074896;28;45685;-75
2023/03/26 11:47:45;;;;;;;;;0.00;0.00;;;;;12.90;53.85;99719.38;5074924;27;45605;-77
2023/03/26 11:50:28;;;;;;;;;0.00;0.00;;;;;12.98;53.61;99749.19;5073837;27;45852;-76
2023/03/26 11:53:01;;;;;;;;;0.00;0.00;;;;;12.99;53.36;99731.63;5089904;27;45612;-74
2023/03/26 11:55:29;;;;;;;;;0.00;0.00;;;;;12.95;54.04;99723.22;5074628;27;45716;-77
2023/03/26 11:57:58;;;;;;;;;0.00;0.00;;;;;12.96;53.40;99724.00;5074506;27;45529;-75
2023/03/26 12:00:27;;;;;;;;;0.00;0.00;;;;;12.99;53.74;99734.25;5074277;27;47593;-76
2023/03/26 12:02:57;;;;;;;;;0.00;0.00;;;;;13.02;53.66;99742.66;5074302;28;46191;-77
2023/03/26 12:05:33;;;;;;;;;0.50;0.00;;;;;12.94;53.86;99737.31;5073800;27;45803;-75
2023/03/26 12:08:00;;;;;;;;;0.00;0.00;;;;;12.95;53.98;99748.66;5089960;27;45632;-75
2023/03/26 12:10:38;;;;;;;;;0.75;0.00;;;;;12.86;53.79;99755.59;5089813;27;48094;-75
2023/03/26 12:13:32;;;;;;;;;0.00;0.00;;;;;12.74;53.64;99758.59;5073411;27;46223;-75
2023/03/26 12:16:09;;;;;;;;;0.00;0.00;;;;;12.59;54.96;99745.88;5074376;27;45509;-76
2023/03/26 12:18:38;;;;;;;;;0.00;0.00;;;;;12.47;56.08;99733.88;5074183;27;45628;-76
2023/03/26 12:21:08;;;;;;;;;0.00;0.00;;;;;12.42;55.47;99738.72;5074106;27;47537;-76
2023/03/26 12:24:04;;;;;;;;;0.00;0.00;;;;;12.32;55.84;99742.34;5074116;27;45957;-76
2023/03/26 12:30:02;;;;;;;;;0.00;0.00;;;;;12.30;56.78;99741.69;5073448;28;45862;-78
2023/03/26 12:32:32;;;;;;;;;0.00;0.00;;;;;12.30;56.54;99733.81;5074138;27;45743;-77
2023/03/26 12:35:05;;;;;;;;;0.00;0.00;;;;;12.34;56.72;99727.28;5072940;27;47503;-76
2023/03/26 12:37:37;;;;;;;;;0.00;0.00;;;;;12.34;57.24;99730.75;5074236;28;45534;-76
2023/03/26 12:40:26;;;;;;;;;0.00;0.00;;;;;12.37;57.24;99733.06;5072769;28;45625;-76
2023/03/26 12:46:29;;;;;;;;;0.00;0.00;;;;;12.36;59.96;99736.66;5074055;28;45701;-74
2023/03/26 12:48:58;;;;;;;;;0.00;0.00;;;;;12.33;60.43;99723.00;5073701;27;45806;-75
2023/03/26 12:51:42;;;;;;;;;1.50;1.50;;;;;12.36;60.38;99710.41;5074075;27;45499;-79
2023/03/26 12:54:28;;;;;;;;;0.00;0.00;;;;;12.39;60.20;99707.50;5073762;28;45512;-75
2023/03/26 13:04:05;;;;;;;;;0.00;0.00;;;;;12.79;60.29;99693.25;5073899;28;45637;-76
2023/03/26 13:06:44;;;;;;;;;0.00;0.00;;;;;12.86;59.86;99694.31;5073724;27;47374;-81
2023/03/26 13:09:31;;;;;;;;;0.75;0.00;;;;;12.96;59.96;99700.34;5073952;28;46087;-80
2023/03/26 13:15:39;;;;;;;;;0.00;0.00;;;;;13.02;60.05;99705.03;5073586;28;45670;-75
2023/03/26 13:18:22;;;;;;;;;0.00;0.00;;;;;13.06;59.78;99710.84;5073534;27;47886;-77
2023/03/26 13:21:03;;;;;;;;;0.00;0.00;;;;;13.07;59.60;99697.53;5072831;28;46143;-77